Time;durP1;ratioP1;P1;durP2;ratioP2;P2;SDS_P1;SDS_P2;PMS_P1;PMS_P2;Temp;Humidity;BMP_temperature;BMP_pressure;BME280_temperature;BME280_humidity;BME280_pressure;Samples;Min_cycle;Max_cycle;Signal;HPM_P1;HPM_P2
2023/12/16 00:00:47;;;;;;;31.88;18.90;;;;;;;;;;2090401;28;20041;-61
2023/12/16 00:01:47;;;;;;;26.15;15.30;;;;;;;;;;2090671;28;20394;-61
2023/12/16 00:02:48;;;;;;;26.88;15.90;;;;;;;;;;2090613;28;20037;-61
2023/12/16 00:03:49;;;;;;;28.27;15.38;;;;;;;;;;2090845;28;20049;-60
2023/12/16 00:04:49;;;;;;;28.88;15.98;;;;;;;;;;2090569;28;20067;-60
2023/12/16 00:05:51;;;;;;;26.30;15.98;;;;;;;;;;2090507;28;20481;-60
2023/12/16 00:06:51;;;;;;;25.40;14.43;;;;;;;;;;2090278;28;20053;-60
2023/12/16 00:07:52;;;;;;;29.40;15.38;;;;;;;;;;2090943;28;20039;-61
2023/12/16 00:08:53;;;;;;;24.92;15.30;;;;;;;;;;2090675;28;20029;-61
2023/12/16 00:09:53;;;;;;;25.73;14.75;;;;;;;;;;2090490;28;20473;-60
2023/12/16 00:10:54;;;;;;;25.48;14.45;;;;;;;;;;2090504;28;20094;-61
2023/12/16 00:11:55;;;;;;;20.95;12.65;;;;;;;;;;2090804;28;20477;-61
2023/12/16 00:12:56;;;;;;;29.10;15.63;;;;;;;;;;2090557;28;20033;-60
2023/12/16 00:13:56;;;;;;;25.83;14.00;;;;;;;;;;2091382;28;20045;-61
2023/12/16 00:14:57;;;;;;;27.33;15.45;;;;;;;;;;2090494;28;20052;-60
2023/12/16 00:15:58;;;;;;;22.25;12.60;;;;;;;;;;2089798;28;20511;-61
2023/12/16 00:16:58;;;;;;;24.08;14.40;;;;;;;;;;2090607;28;20037;-61
2023/12/16 00:17:59;;;;;;;24.02;14.18;;;;;;;;;;2090603;28;20045;-60
2023/12/16 00:19:00;;;;;;;20.83;12.40;;;;;;;;;;2090448;28;20049;-60
2023/12/16 00:20:01;;;;;;;22.85;13.27;;;;;;;;;;2090564;28;20033;-60
2023/12/16 00:21:01;;;;;;;25.10;14.60;;;;;;;;;;2090701;28;20472;-60
2023/12/16 00:22:02;;;;;;;22.80;12.38;;;;;;;;;;2090150;28;20424;-61
2023/12/16 00:23:03;;;;;;;21.48;13.15;;;;;;;;;;2090424;28;20064;-60
2023/12/16 00:24:04;;;;;;;23.00;13.43;;;;;;;;;;2090127;28;20060;-61
2023/12/16 00:25:08;;;;;;;23.15;13.75;;;;;;;;;;2090410;28;20477;-62
2023/12/16 00:26:09;;;;;;;21.38;13.43;;;;;;;;;;2090483;28;20033;-62
2023/12/16 00:27:10;;;;;;;21.23;13.10;;;;;;;;;;2089733;28;20090;-61
2023/12/16 00:28:10;;;;;;;25.20;14.23;;;;;;;;;;2090041;28;20033;-61
2023/12/16 00:29:11;;;;;;;25.17;14.35;;;;;;;;;;2090039;28;20052;-61
2023/12/16 00:30:12;;;;;;;22.45;12.93;;;;;;;;;;2090316;28;20029;-61
2023/12/16 00:31:13;;;;;;;25.95;13.88;;;;;;;;;;2089943;28;20120;-60
2023/12/16 00:32:13;;;;;;;20.15;11.38;;;;;;;;;;2090531;28;20033;-61
2023/12/16 00:33:14;;;;;;;21.58;12.45;;;;;;;;;;2090736;28;20397;-60
2023/12/16 00:34:15;;;;;;;24.85;13.68;;;;;;;;;;2090509;28;20033;-60
2023/12/16 00:35:15;;;;;;;22.27;12.48;;;;;;;;;;2090520;28;20021;-61
2023/12/16 00:36:16;;;;;;;22.73;13.30;;;;;;;;;;2090635;28;20044;-61
2023/12/16 00:37:17;;;;;;;26.15;14.20;;;;;;;;;;2090253;28;20041;-61
2023/12/16 00:38:18;;;;;;;21.73;13.23;;;;;;;;;;2090290;28;20037;-61
2023/12/16 00:39:18;;;;;;;24.63;13.55;;;;;;;;;;2090459;28;20457;-60
2023/12/16 00:40:19;;;;;;;23.23;13.25;;;;;;;;;;2090346;28;20477;-60
2023/12/16 00:41:20;;;;;;;21.80;12.32;;;;;;;;;;2090760;28;20021;-61
2023/12/16 00:42:21;;;;;;;21.90;13.75;;;;;;;;;;2090289;28;20052;-61
2023/12/16 00:43:21;;;;;;;25.20;13.45;;;;;;;;;;2090347;28;20041;-61
2023/12/16 00:44:22;;;;;;;22.10;12.88;;;;;;;;;;2090780;28;20036;-61
2023/12/16 00:45:23;;;;;;;22.73;13.13;;;;;;;;;;2090469;28;20029;-61
2023/12/16 00:46:24;;;;;;;22.42;12.85;;;;;;;;;;2090308;28;20465;-60
2023/12/16 00:47:25;;;;;;;23.33;12.57;;;;;;;;;;2090176;28;20021;-60
2023/12/16 00:48:25;;;;;;;25.10;13.02;;;;;;;;;;2090234;28;20037;-61
2023/12/16 00:49:27;;;;;;;23.40;11.68;;;;;;;;;;2090297;28;20141;-60
2023/12/16 00:50:27;;;;;;;23.85;13.02;;;;;;;;;;2090769;28;20049;-60
2023/12/16 00:51:28;;;;;;;23.25;13.38;;;;;;;;;;2090284;28;20397;-60
2023/12/16 00:52:29;;;;;;;21.63;12.73;;;;;;;;;;2090274;28;20072;-61
2023/12/16 00:53:29;;;;;;;22.08;13.35;;;;;;;;;;2090333;28;20025;-61
2023/12/16 00:54:30;;;;;;;23.45;13.82;;;;;;;;;;2089985;28;20048;-61
2023/12/16 00:55:31;;;;;;;24.15;13.77;;;;;;;;;;2090252;28;20044;-60
2023/12/16 00:56:31;;;;;;;23.30;14.48;;;;;;;;;;2090193;28;20037;-60
2023/12/16 00:57:32;;;;;;;24.92;14.60;;;;;;;;;;2090210;28;20499;-60
2023/12/16 00:58:33;;;;;;;26.80;14.25;;;;;;;;;;2090494;28;20025;-61
2023/12/16 00:59:34;;;;;;;23.55;13.05;;;;;;;;;;2090324;28;20029;-61
2023/12/16 01:00:34;;;;;;;22.90;12.95;;;;;;;;;;2090063;28;20056;-61
2023/12/16 01:01:35;;;;;;;24.80;13.00;;;;;;;;;;2090089;28;20477;-59
2023/12/16 01:02:36;;;;;;;24.20;13.23;;;;;;;;;;2090378;28;20037;-58
2023/12/16 01:03:37;;;;;;;25.08;13.52;;;;;;;;;;2090202;28;20045;-59
2023/12/16 01:04:38;;;;;;;21.42;12.13;;;;;;;;;;2090226;28;20052;-60
2023/12/16 01:05:38;;;;;;;23.40;12.43;;;;;;;;;;2090478;28;20068;-59
2023/12/16 01:06:39;;;;;;;21.90;12.50;;;;;;;;;;2090364;28;20357;-60
2023/12/16 01:07:40;;;;;;;23.85;13.27;;;;;;;;;;2089736;28;20045;-60
2023/12/16 01:08:42;;;;;;;21.90;12.38;;;;;;;;;;2090349;28;20033;-59
2023/12/16 01:09:43;;;;;;;22.38;13.07;;;;;;;;;;2089790;28;20037;-60
2023/12/16 01:10:44;;;;;;;20.95;13.02;;;;;;;;;;2090341;28;20055;-59
2023/12/16 01:11:44;;;;;;;21.00;12.68;;;;;;;;;;2090186;28;20469;-59
2023/12/16 01:12:45;;;;;;;24.02;14.15;;;;;;;;;;2090156;28;20179;-60
2023/12/16 01:13:46;;;;;;;22.98;13.30;;;;;;;;;;2089846;28;20481;-59
2023/12/16 01:14:47;;;;;;;25.00;13.45;;;;;;;;;;2090273;28;20032;-59
2023/12/16 01:15:48;;;;;;;24.20;13.73;;;;;;;;;;2089633;28;20098;-59
2023/12/16 01:16:48;;;;;;;23.67;12.07;;;;;;;;;;2090182;28;20081;-59
2023/12/16 01:17:49;;;;;;;24.60;13.40;;;;;;;;;;2090182;28;20029;-59
2023/12/16 01:18:50;;;;;;;25.88;14.57;;;;;;;;;;2090149;28;20508;-59
2023/12/16 01:19:50;;;;;;;24.00;13.15;;;;;;;;;;2090107;28;20041;-60
2023/12/16 01:20:51;;;;;;;27.83;14.65;;;;;;;;;;2090093;28;20052;-59
2023/12/16 01:21:52;;;;;;;25.13;14.95;;;;;;;;;;2090392;28;20033;-59
2023/12/16 01:22:53;;;;;;;24.77;14.25;;;;;;;;;;2089873;28;20053;-59
2023/12/16 01:23:54;;;;;;;27.38;15.13;;;;;;;;;;2090140;28;20041;-59
2023/12/16 01:24:54;;;;;;;25.73;14.27;;;;;;;;;;2090118;28;20500;-59
2023/12/16 01:25:55;;;;;;;29.70;15.55;;;;;;;;;;2090145;28;20388;-61
2023/12/16 01:26:56;;;;;;;27.40;15.15;;;;;;;;;;2090313;28;20033;-58
2023/12/16 01:27:56;;;;;;;24.40;13.70;;;;;;;;;;2089726;28;20044;-61
2023/12/16 01:28:57;;;;;;;27.42;14.25;;;;;;;;;;2090147;28;20044;-61
2023/12/16 01:29:58;;;;;;;24.70;13.60;;;;;;;;;;2090217;28;20048;-60
2023/12/16 01:30:58;;;;;;;28.60;14.98;;;;;;;;;;2089977;28;20045;-61
2023/12/16 01:31:59;;;;;;;28.42;13.60;;;;;;;;;;2090750;28;20404;-61
2023/12/16 01:33:00;;;;;;;25.58;14.80;;;;;;;;;;2090060;28;20477;-61
2023/12/16 01:34:01;;;;;;;28.45;14.95;;;;;;;;;;2090236;28;20024;-61
2023/12/16 01:35:02;;;;;;;22.98;13.18;;;;;;;;;;2089789;28;20058;-59
2023/12/16 01:36:02;;;;;;;24.48;13.57;;;;;;;;;;2090127;28;20048;-59
2023/12/16 01:37:03;;;;;;;25.50;14.90;;;;;;;;;;2090085;28;20025;-61
2023/12/16 01:38:04;;;;;;;24.65;13.98;;;;;;;;;;2090277;28;20473;-61
2023/12/16 01:39:04;;;;;;;27.35;15.48;;;;;;;;;;2090312;28;20041;-59
2023/12/16 01:40:06;;;;;;;26.65;14.98;;;;;;;;;;2090188;28;20052;-59
2023/12/16 01:41:06;;;;;;;26.65;14.68;;;;;;;;;;2090368;28;20037;-59
2023/12/16 01:42:07;;;;;;;26.13;14.02;;;;;;;;;;2090336;28;20071;-59
2023/12/16 01:43:08;;;;;;;31.52;15.25;;;;;;;;;;2090026;28;20040;-59
2023/12/16 01:44:09;;;;;;;23.90;13.25;;;;;;;;;;2091804;28;20048;-59
2023/12/16 01:45:09;;;;;;;27.38;15.60;;;;;;;;;;2091855;28;20053;-59
2023/12/16 01:46:10;;;;;;;27.17;15.73;;;;;;;;;;2091600;28;20045;-59
2023/12/16 01:47:11;;;;;;;26.70;14.77;;;;;;;;;;2091241;28;20424;-59
2023/12/16 01:48:12;;;;;;;28.33;15.65;;;;;;;;;;2091179;28;20547;-60
2023/12/16 01:49:13;;;;;;;29.52;16.65;;;;;;;;;;2098721;28;20045;-59
2023/12/16 01:50:14;;;;;;;29.40;15.55;;;;;;;;;;2091263;28;20147;-60
2023/12/16 01:51:14;;;;;;;29.83;14.48;;;;;;;;;;2091007;28;20037;-59
2023/12/16 01:52:15;;;;;;;30.48;16.35;;;;;;;;;;2091090;28;20033;-59
2023/12/16 01:53:16;;;;;;;25.17;14.50;;;;;;;;;;2082757;28;20056;-59
2023/12/16 01:54:17;;;;;;;26.70;13.95;;;;;;;;;;2082787;28;20044;-59
2023/12/16 01:55:18;;;;;;;34.55;16.83;;;;;;;;;;2090996;28;20040;-59
2023/12/16 01:56:19;;;;;;;26.23;14.63;;;;;;;;;;2091223;28;20029;-59
2023/12/16 01:57:19;;;;;;;32.80;16.15;;;;;;;;;;2090962;28;20052;-61
2023/12/16 01:58:20;;;;;;;29.42;15.85;;;;;;;;;;2091907;28;20507;-59
2023/12/16 01:59:21;;;;;;;31.00;16.38;;;;;;;;;;2090644;28;20063;-61
2023/12/16 02:00:23;;;;;;;26.70;15.48;;;;;;;;;;2091007;28;20040;-60
2023/12/16 02:01:24;;;;;;;32.40;15.93;;;;;;;;;;2091065;28;20056;-59
2023/12/16 02:02:26;;;;;;;33.50;16.65;;;;;;;;;;2082411;28;20046;-61
2023/12/16 02:03:27;;;;;;;31.08;16.77;;;;;;;;;;2090942;28;20493;-60
2023/12/16 02:04:28;;;;;;;32.95;17.23;;;;;;;;;;2090898;28;20066;-60
2023/12/16 02:05:29;;;;;;;27.90;16.00;;;;;;;;;;2090745;28;20049;-60
2023/12/16 02:06:29;;;;;;;33.97;19.00;;;;;;;;;;2090922;28;20036;-60
2023/12/16 02:07:30;;;;;;;34.17;18.88;;;;;;;;;;2091611;28;20032;-60
2023/12/16 02:08:31;;;;;;;39.70;19.70;;;;;;;;;;2091143;28;20056;-59
2023/12/16 02:09:32;;;;;;;32.58;19.02;;;;;;;;;;2091433;28;20465;-60
2023/12/16 02:10:32;;;;;;;33.75;19.10;;;;;;;;;;2091421;28;20043;-59
2023/12/16 02:11:33;;;;;;;32.75;18.92;;;;;;;;;;2091670;28;20063;-61
2023/12/16 02:12:34;;;;;;;33.55;18.40;;;;;;;;;;2091520;28;20052;-60
2023/12/16 02:13:34;;;;;;;34.97;18.75;;;;;;;;;;2091445;28;20069;-61
2023/12/16 02:14:35;;;;;;;35.90;19.73;;;;;;;;;;2091622;28;20036;-61
2023/12/16 02:15:36;;;;;;;35.95;20.08;;;;;;;;;;2090876;28;20432;-61
2023/12/16 02:16:37;;;;;;;32.28;18.92;;;;;;;;;;2091114;28;20469;-60
2023/12/16 02:17:37;;;;;;;32.97;18.73;;;;;;;;;;2091734;28;20068;-61
2023/12/16 02:18:38;;;;;;;37.10;19.38;;;;;;;;;;2091341;28;20064;-59
2023/12/16 02:19:39;;;;;;;31.38;16.90;;;;;;;;;;2091396;28;20041;-58
2023/12/16 02:20:39;;;;;;;33.08;19.40;;;;;;;;;;2091342;28;20064;-59
2023/12/16 02:21:40;;;;;;;31.23;15.95;;;;;;;;;;2091401;28;20075;-59
2023/12/16 02:22:41;;;;;;;31.92;18.23;;;;;;;;;;2091023;28;20079;-59
2023/12/16 02:23:42;;;;;;;35.30;19.65;;;;;;;;;;2091559;28;20044;-60
2023/12/16 02:24:42;;;;;;;32.55;16.80;;;;;;;;;;2091441;28;20045;-59
2023/12/16 02:25:43;;;;;;;33.55;19.23;;;;;;;;;;2091327;28;20048;-59
2023/12/16 02:26:44;;;;;;;38.22;19.05;;;;;;;;;;2091368;28;20447;-59
2023/12/16 02:27:45;;;;;;;37.53;19.67;;;;;;;;;;2091777;28;20056;-59
2023/12/16 02:28:46;;;;;;;38.75;21.33;;;;;;;;;;2091509;28;20369;-59
2023/12/16 02:29:46;;;;;;;38.47;19.08;;;;;;;;;;2091000;28;20052;-60
2023/12/16 02:30:47;;;;;;;34.72;18.77;;;;;;;;;;2091341;28;20041;-61
2023/12/16 02:31:48;;;;;;;36.55;18.88;;;;;;;;;;2091319;28;20440;-59
2023/12/16 02:32:49;;;;;;;34.58;18.27;;;;;;;;;;2091200;28;20044;-60
2023/12/16 02:33:49;;;;;;;33.25;18.42;;;;;;;;;;2091297;28;20488;-59
2023/12/16 02:34:50;;;;;;;33.85;18.48;;;;;;;;;;2091249;28;20053;-60
2023/12/16 02:35:51;;;;;;;33.35;17.73;;;;;;;;;;2091261;28;20102;-60
2023/12/16 02:36:52;;;;;;;31.40;17.05;;;;;;;;;;2091191;28;20500;-60
2023/12/16 02:37:53;;;;;;;37.88;20.35;;;;;;;;;;2090938;28;20063;-61
2023/12/16 02:38:54;;;;;;;34.08;18.90;;;;;;;;;;2091482;28;20040;-59
2023/12/16 02:39:54;;;;;;;35.95;19.83;;;;;;;;;;2091224;28;20049;-58
2023/12/16 02:40:55;;;;;;;40.20;20.50;;;;;;;;;;2091437;28;20534;-59
2023/12/16 02:41:56;;;;;;;33.17;18.80;;;;;;;;;;2091130;28;20071;-59
2023/12/16 02:42:57;;;;;;;34.80;18.63;;;;;;;;;;2091235;28;20397;-59
2023/12/16 02:43:58;;;;;;;36.70;19.95;;;;;;;;;;2090907;28;20508;-61
2023/12/16 02:44:58;;;;;;;36.80;19.90;;;;;;;;;;2091205;28;20069;-60
2023/12/16 02:45:59;;;;;;;34.67;20.27;;;;;;;;;;2091061;28;20033;-60
2023/12/16 02:47:00;;;;;;;38.15;19.65;;;;;;;;;;2091580;28;20049;-61
2023/12/16 02:48:01;;;;;;;35.28;20.50;;;;;;;;;;2091465;28;20102;-60
2023/12/16 02:49:01;;;;;;;36.15;20.50;;;;;;;;;;2091709;28;20032;-59
2023/12/16 02:50:03;;;;;;;39.58;20.45;;;;;;;;;;2091582;28;20052;-60
2023/12/16 02:51:04;;;;;;;34.60;18.05;;;;;;;;;;2091523;28;20489;-61
2023/12/16 02:52:05;;;;;;;35.03;19.38;;;;;;;;;;2091856;28;20044;-62
2023/12/16 02:53:07;;;;;;;35.70;20.08;;;;;;;;;;2091876;28;20053;-60
2023/12/16 02:54:08;;;;;;;32.35;18.58;;;;;;;;;;2091408;28;20040;-61
2023/12/16 02:55:08;;;;;;;34.58;16.35;;;;;;;;;;2091694;28;20060;-61
2023/12/16 02:56:09;;;;;;;35.63;18.73;;;;;;;;;;2091319;28;20489;-58
2023/12/16 02:57:10;;;;;;;34.30;18.85;;;;;;;;;;2091184;28;20528;-58
2023/12/16 02:58:11;;;;;;;34.65;19.45;;;;;;;;;;2091221;28;20516;-59
2023/12/16 02:59:11;;;;;;;36.15;18.77;;;;;;;;;;2091135;28;20128;-58
2023/12/16 03:00:12;;;;;;;35.28;18.92;;;;;;;;;;2091023;28;20049;-63
2023/12/16 03:01:13;;;;;;;31.77;17.92;;;;;;;;;;2090785;28;20053;-59
2023/12/16 03:02:14;;;;;;;34.90;19.38;;;;;;;;;;2091320;28;20037;-59
2023/12/16 03:03:14;;;;;;;34.38;20.02;;;;;;;;;;2090759;28;20049;-60
2023/12/16 03:04:15;;;;;;;37.30;19.27;;;;;;;;;;2091339;28;20044;-61
2023/12/16 03:05:16;;;;;;;36.63;20.25;;;;;;;;;;2091063;28;20397;-58
2023/12/16 03:06:16;;;;;;;37.25;20.00;;;;;;;;;;2091610;28;20037;-60
2023/12/16 03:07:17;;;;;;;38.78;20.08;;;;;;;;;;2091151;28;20033;-60
2023/12/16 03:08:18;;;;;;;39.92;20.20;;;;;;;;;;2091183;28;20048;-60
2023/12/16 03:09:19;;;;;;;39.17;19.50;;;;;;;;;;2090918;28;20045;-60
2023/12/16 03:10:19;;;;;;;37.10;19.73;;;;;;;;;;2090849;28;20064;-61
2023/12/16 03:11:20;;;;;;;36.63;19.63;;;;;;;;;;2090978;28;20397;-61
2023/12/16 03:12:21;;;;;;;35.55;20.08;;;;;;;;;;2091206;28;20423;-60
2023/12/16 03:13:21;;;;;;;37.47;20.27;;;;;;;;;;2090580;28;20044;-60
2023/12/16 03:14:22;;;;;;;34.50;18.33;;;;;;;;;;2091242;28;20021;-60
2023/12/16 03:15:23;;;;;;;39.38;20.02;;;;;;;;;;2090886;28;20056;-60
2023/12/16 03:16:24;;;;;;;37.50;20.27;;;;;;;;;;2090323;28;20041;-61
2023/12/16 03:17:24;;;;;;;34.97;20.63;;;;;;;;;;2091237;28;20052;-61
2023/12/16 03:18:25;;;;;;;36.03;20.15;;;;;;;;;;2090874;28;20032;-61
2023/12/16 03:19:27;;;;;;;35.53;18.70;;;;;;;;;;2091074;28;20393;-61
2023/12/16 03:20:28;;;;;;;33.85;19.33;;;;;;;;;;2090452;28;20526;-60
2023/12/16 03:21:30;;;;;;;39.25;20.73;;;;;;;;;;2090048;28;20039;-60
2023/12/16 03:22:31;;;;;;;33.97;19.27;;;;;;;;;;2090955;28;20044;-60
2023/12/16 03:23:31;;;;;;;33.65;20.27;;;;;;;;;;2090919;28;20389;-61
2023/12/16 03:24:32;;;;;;;35.90;18.95;;;;;;;;;;2090847;28;20032;-60
2023/12/16 03:25:33;;;;;;;32.53;17.55;;;;;;;;;;2090389;28;20040;-61
2023/12/16 03:26:34;;;;;;;37.00;18.98;;;;;;;;;;2089662;28;20045;-61
2023/12/16 03:27:34;;;;;;;33.72;18.80;;;;;;;;;;2090822;28;20438;-60
2023/12/16 03:28:35;;;;;;;34.80;19.05;;;;;;;;;;2090785;28;20472;-59
2023/12/16 03:29:36;;;;;;;33.13;18.98;;;;;;;;;;2091294;28;20029;-60
2023/12/16 03:30:40;;;;;;;34.00;18.73;;;;;;;;;;2091074;28;20029;-60
2023/12/16 03:31:41;;;;;;;31.65;17.95;;;;;;;;;;2090854;28;20048;-58
2023/12/16 03:32:41;;;;;;;31.85;17.83;;;;;;;;;;2090986;28;20489;-59
2023/12/16 03:33:42;;;;;;;29.80;17.98;;;;;;;;;;2090475;28;20132;-59
2023/12/16 03:34:43;;;;;;;33.10;18.08;;;;;;;;;;2091049;28;20044;-59
2023/12/16 03:35:43;;;;;;;30.30;17.58;;;;;;;;;;2090819;28;20060;-59
2023/12/16 03:36:44;;;;;;;30.98;17.52;;;;;;;;;;2090986;28;20055;-59
2023/12/16 03:37:45;;;;;;;30.80;17.30;;;;;;;;;;2090775;28;20049;-59
2023/12/16 03:38:46;;;;;;;32.28;18.65;;;;;;;;;;2091092;28;20052;-59
2023/12/16 03:39:46;;;;;;;31.15;16.63;;;;;;;;;;2091114;28;20413;-59
2023/12/16 03:40:47;;;;;;;28.48;17.48;;;;;;;;;;2090767;28;20527;-58
2023/12/16 03:41:48;;;;;;;29.85;18.13;;;;;;;;;;2090901;28;20021;-58
2023/12/16 03:42:48;;;;;;;26.60;15.30;;;;;;;;;;2090866;28;20049;-59
2023/12/16 03:43:50;;;;;;;30.30;16.65;;;;;;;;;;2091131;28;20044;-58
2023/12/16 03:44:51;;;;;;;29.42;16.58;;;;;;;;;;2090949;28;20032;-61
2023/12/16 03:45:51;;;;;;;26.77;15.23;;;;;;;;;;2091017;28;20052;-60
2023/12/16 03:46:52;;;;;;;29.60;17.35;;;;;;;;;;2091148;28;20489;-60
2023/12/16 03:47:53;;;;;;;30.73;18.65;;;;;;;;;;2090866;28;20503;-60
2023/12/16 03:48:53;;;;;;;30.63;18.02;;;;;;;;;;2090560;28;20029;-60
2023/12/16 03:49:54;;;;;;;27.98;17.08;;;;;;;;;;2090981;28;20116;-61
2023/12/16 03:50:55;;;;;;;30.52;17.70;;;;;;;;;;2090590;28;20030;-60
2023/12/16 03:51:56;;;;;;;31.70;18.08;;;;;;;;;;2090465;28;20044;-61
2023/12/16 03:52:56;;;;;;;28.92;17.08;;;;;;;;;;2090679;28;20041;-61
2023/12/16 03:53:57;;;;;;;30.08;17.27;;;;;;;;;;2090655;28;20052;-60
2023/12/16 03:54:58;;;;;;;30.23;17.27;;;;;;;;;;2090653;28;20439;-60
2023/12/16 03:55:59;;;;;;;33.50;16.33;;;;;;;;;;2090724;28;20067;-60
2023/12/16 03:56:59;;;;;;;32.28;17.50;;;;;;;;;;2090896;28;20384;-61
2023/12/16 03:58:00;;;;;;;27.55;15.13;;;;;;;;;;2090602;28;20029;-61
2023/12/16 03:59:01;;;;;;;31.60;18.30;;;;;;;;;;2090319;28;20045;-59
2023/12/16 04:00:02;;;;;;;31.80;17.65;;;;;;;;;;2090659;28;20036;-59
2023/12/16 04:01:13;;;;;;;29.83;16.25;;;;;;;;;;2090370;28;20493;-58
2023/12/16 04:02:13;;;;;;;27.52;15.80;;;;;;;;;;2090597;28;20045;-59
2023/12/16 04:03:15;;;;;;;31.60;18.02;;;;;;;;;;2090602;28;20052;-59
2023/12/16 04:04:15;;;;;;;34.67;17.92;;;;;;;;;;2090541;28;20025;-58
2023/12/16 04:05:16;;;;;;;32.80;17.98;;;;;;;;;;2090569;28;20461;-59
2023/12/16 04:06:17;;;;;;;33.58;19.17;;;;;;;;;;2090039;28;20040;-59
2023/12/16 04:07:18;;;;;;;28.58;15.48;;;;;;;;;;2090499;28;20048;-59
2023/12/16 04:08:18;;;;;;;35.25;18.25;;;;;;;;;;2090703;28;20408;-59
2023/12/16 04:09:19;;;;;;;34.13;19.20;;;;;;;;;;2090697;28;20064;-60
2023/12/16 04:10:20;;;;;;;30.48;16.50;;;;;;;;;;2090396;28;20040;-59
2023/12/16 04:11:20;;;;;;;36.38;18.95;;;;;;;;;;2090590;28;20033;-58
2023/12/16 04:12:21;;;;;;;28.55;14.73;;;;;;;;;;2090668;28;20445;-59
2023/12/16 04:13:22;;;;;;;33.92;18.50;;;;;;;;;;2090862;28;20475;-59
2023/12/16 04:14:23;;;;;;;35.03;17.35;;;;;;;;;;2090310;28;20033;-59
2023/12/16 04:15:23;;;;;;;34.25;18.50;;;;;;;;;;2090458;28;20195;-60
2023/12/16 04:16:24;;;;;;;33.15;18.77;;;;;;;;;;2089444;28;20081;-59
2023/12/16 04:17:26;;;;;;;33.38;18.13;;;;;;;;;;2090394;28;20055;-60
2023/12/16 04:18:27;;;;;;;35.85;18.77;;;;;;;;;;2090592;28;20044;-61
2023/12/16 04:19:28;;;;;;;32.08;18.58;;;;;;;;;;2090147;28;20044;-60
2023/12/16 04:20:30;;;;;;;34.63;18.88;;;;;;;;;;2090590;28;20044;-60
2023/12/16 04:21:32;;;;;;;35.75;19.33;;;;;;;;;;2090447;28;20044;-60
2023/12/16 04:22:33;;;;;;;31.92;18.05;;;;;;;;;;2090406;28;20052;-60
2023/12/16 04:23:33;;;;;;;31.25;16.13;;;;;;;;;;2090515;28;20493;-60
2023/12/16 04:24:34;;;;;;;36.38;20.02;;;;;;;;;;2090678;28;20036;-61
2023/12/16 04:25:35;;;;;;;36.22;19.63;;;;;;;;;;2090482;28;20052;-60
2023/12/16 04:26:36;;;;;;;32.80;18.65;;;;;;;;;;2090386;28;20123;-61
2023/12/16 04:27:37;;;;;;;34.83;17.55;;;;;;;;;;2090406;28;20037;-61
2023/12/16 04:28:37;;;;;;;39.10;20.42;;;;;;;;;;2090725;28;20571;-61
2023/12/16 04:29:38;;;;;;;35.97;19.70;;;;;;;;;;2090296;28;20075;-60
2023/12/16 04:30:39;;;;;;;32.95;18.08;;;;;;;;;;2090383;28;20495;-59
2023/12/16 04:31:40;;;;;;;37.47;19.27;;;;;;;;;;2090721;28;20029;-58
2023/12/16 04:32:40;;;;;;;36.45;20.90;;;;;;;;;;2090345;28;20044;-60
2023/12/16 04:33:41;;;;;;;40.63;22.35;;;;;;;;;;2090319;28;20047;-58
2023/12/16 04:34:42;;;;;;;37.65;20.17;;;;;;;;;;2090482;28;20405;-59
2023/12/16 04:35:43;;;;;;;39.65;20.50;;;;;;;;;;2090357;28;20503;-59
2023/12/16 04:36:43;;;;;;;38.75;20.92;;;;;;;;;;2090317;28;20041;-59
2023/12/16 04:37:44;;;;;;;37.05;20.50;;;;;;;;;;2090317;28;20492;-58
2023/12/16 04:38:45;;;;;;;35.85;19.88;;;;;;;;;;2090786;28;20052;-58
2023/12/16 04:39:45;;;;;;;38.38;20.67;;;;;;;;;;2090050;28;20124;-59
2023/12/16 04:40:46;;;;;;;40.78;21.42;;;;;;;;;;2090708;28;20025;-59
2023/12/16 04:41:47;;;;;;;37.72;20.27;;;;;;;;;;2090326;28;20049;-59
2023/12/16 04:42:47;;;;;;;36.95;19.13;;;;;;;;;;2090254;28;20055;-60
2023/12/16 04:43:48;;;;;;;39.05;20.35;;;;;;;;;;2090007;28;20041;-60
2023/12/16 04:44:49;;;;;;;40.38;20.45;;;;;;;;;;2090309;28;20531;-61
2023/12/16 04:45:50;;;;;;;36.90;19.60;;;;;;;;;;2090257;28;20515;-59
2023/12/16 04:46:50;;;;;;;39.75;18.88;;;;;;;;;;2090640;28;20072;-60
2023/12/16 04:47:51;;;;;;;40.53;20.58;;;;;;;;;;2090277;28;20036;-60
2023/12/16 04:48:52;;;;;;;43.47;19.83;;;;;;;;;;2090444;28;20041;-60
2023/12/16 04:49:52;;;;;;;46.03;22.90;;;;;;;;;;2090324;28;20045;-59
2023/12/16 04:50:53;;;;;;;44.00;21.65;;;;;;;;;;2081005;28;20041;-59
2023/12/16 04:51:54;;;;;;;39.45;20.95;;;;;;;;;;2081659;28;20367;-61
2023/12/16 04:52:55;;;;;;;39.92;20.70;;;;;;;;;;2089971;28;20052;-60
2023/12/16 04:53:56;;;;;;;40.65;21.70;;;;;;;;;;2090484;28;20075;-59
2023/12/16 04:54:57;;;;;;;39.72;20.88;;;;;;;;;;2089963;28;20048;-59
2023/12/16 04:55:57;;;;;;;37.05;19.33;;;;;;;;;;2090210;28;20046;-58
2023/12/16 04:56:58;;;;;;;44.08;22.33;;;;;;;;;;2090531;28;20524;-59
2023/12/16 04:57:59;;;;;;;38.22;21.20;;;;;;;;;;2090315;28;20374;-58
2023/12/16 04:58:59;;;;;;;38.60;21.38;;;;;;;;;;2090156;28;20048;-59
2023/12/16 05:00:00;;;;;;;38.65;20.58;;;;;;;;;;2090404;28;20041;-58
2023/12/16 05:01:01;;;;;;;42.13;21.20;;;;;;;;;;2089940;28;20060;-58
2023/12/16 05:02:02;;;;;;;37.20;20.30;;;;;;;;;;2093153;28;20159;-59
2023/12/16 05:03:03;;;;;;;37.55;20.80;;;;;;;;;;2090155;28;20049;-59
2023/12/16 05:04:04;;;;;;;41.45;21.75;;;;;;;;;;2090176;28;20049;-60
2023/12/16 05:05:05;;;;;;;36.88;20.85;;;;;;;;;;2090431;28;20029;-60
2023/12/16 05:06:06;;;;;;;34.30;19.77;;;;;;;;;;2090360;28;20040;-59
2023/12/16 05:07:07;;;;;;;38.83;18.55;;;;;;;;;;2089227;28;20049;-59
2023/12/16 05:08:07;;;;;;;38.92;20.02;;;;;;;;;;2089291;28;20049;-59
2023/12/16 05:09:12;;;;;;;37.72;20.55;;;;;;;;;;2090350;28;20032;-59
2023/12/16 05:10:13;;;;;;;41.38;21.58;;;;;;;;;;2090418;28;20132;-59
2023/12/16 05:11:14;;;;;;;35.80;19.73;;;;;;;;;;2090016;28;20041;-60
2023/12/16 05:12:14;;;;;;;37.67;20.80;;;;;;;;;;2090349;28;20370;-59
2023/12/16 05:13:15;;;;;;;36.97;19.45;;;;;;;;;;2090115;28;20024;-59
2023/12/16 05:14:16;;;;;;;37.58;19.88;;;;;;;;;;2090428;28;20021;-59
2023/12/16 05:15:17;;;;;;;33.55;20.15;;;;;;;;;;2090546;28;20048;-59
2023/12/16 05:16:20;;;;;;;37.08;21.27;;;;;;;;;;2089556;28;20044;-60
2023/12/16 05:17:22;;;;;;;41.00;20.80;;;;;;;;;;2090292;28;20037;-60
2023/12/16 05:18:23;;;;;;;42.05;22.08;;;;;;;;;;2091902;28;20037;-59
2023/12/16 05:19:24;;;;;;;37.17;20.65;;;;;;;;;;2092068;28;20423;-59
2023/12/16 05:20:24;;;;;;;36.35;20.17;;;;;;;;;;2091846;28;20064;-59
2023/12/16 05:21:25;;;;;;;40.10;22.10;;;;;;;;;;2091823;28;20405;-59
2023/12/16 05:22:26;;;;;;;41.53;21.17;;;;;;;;;;2091852;28;20067;-60
2023/12/16 05:23:27;;;;;;;38.17;21.42;;;;;;;;;;2091857;28;20025;-59
2023/12/16 05:24:27;;;;;;;40.75;21.25;;;;;;;;;;2091850;28;20108;-59
2023/12/16 05:25:28;;;;;;;39.83;21.15;;;;;;;;;;2092470;28;20037;-59
2023/12/16 05:26:29;;;;;;;39.88;20.80;;;;;;;;;;2091789;28;20033;-59
2023/12/16 05:27:30;;;;;;;36.90;20.80;;;;;;;;;;2092188;28;20045;-60
2023/12/16 05:28:33;;;;;;;40.80;21.15;;;;;;;;;;2091894;28;20090;-59
2023/12/16 05:29:34;;;;;;;40.50;20.48;;;;;;;;;;2091340;28;20048;-59
2023/12/16 05:30:35;;;;;;;36.72;19.83;;;;;;;;;;2091657;28;20052;-59
2023/12/16 05:31:36;;;;;;;38.63;20.58;;;;;;;;;;2091519;28;20036;-59
2023/12/16 05:32:36;;;;;;;41.28;21.70;;;;;;;;;;2091701;28;20107;-59
2023/12/16 05:33:37;;;;;;;34.95;18.90;;;;;;;;;;2091784;28;20025;-59
2023/12/16 05:34:38;;;;;;;40.38;20.83;;;;;;;;;;2092273;28;20037;-61
2023/12/16 05:35:38;;;;;;;39.03;20.65;;;;;;;;;;2091758;28;20044;-58
2023/12/16 05:36:39;;;;;;;39.30;20.63;;;;;;;;;;2091459;28;20045;-60
2023/12/16 05:37:40;;;;;;;37.72;19.98;;;;;;;;;;2091865;28;20400;-58
2023/12/16 05:38:40;;;;;;;37.70;20.40;;;;;;;;;;2091395;28;20049;-59
2023/12/16 05:39:42;;;;;;;37.28;20.45;;;;;;;;;;2091689;28;20036;-59
2023/12/16 05:40:42;;;;;;;40.83;20.70;;;;;;;;;;2091370;28;20037;-59
2023/12/16 05:41:43;;;;;;;43.00;20.08;;;;;;;;;;2091957;28;20116;-58
2023/12/16 05:42:44;;;;;;;35.17;19.83;;;;;;;;;;2091962;28;20049;-59
2023/12/16 05:43:45;;;;;;;40.63;20.90;;;;;;;;;;2091811;28;20025;-59
2023/12/16 05:44:45;;;;;;;40.25;20.85;;;;;;;;;;2091702;28;20523;-61
2023/12/16 05:45:46;;;;;;;38.88;22.45;;;;;;;;;;2092052;28;20501;-58
2023/12/16 05:46:47;;;;;;;40.00;20.25;;;;;;;;;;2091713;28;20037;-60
2023/12/16 05:47:47;;;;;;;39.67;21.35;;;;;;;;;;2091373;28;20048;-59
2023/12/16 05:48:48;;;;;;;40.70;22.65;;;;;;;;;;2091930;28;20029;-59
2023/12/16 05:49:49;;;;;;;41.83;22.38;;;;;;;;;;2091519;28;20044;-58
2023/12/16 05:50:50;;;;;;;41.20;21.52;;;;;;;;;;2092021;28;20041;-58
2023/12/16 05:51:51;;;;;;;37.45;20.10;;;;;;;;;;2091830;28;20400;-60
2023/12/16 05:52:52;;;;;;;43.22;22.73;;;;;;;;;;2091891;28;20048;-61
2023/12/16 05:53:53;;;;;;;45.20;22.98;;;;;;;;;;2091615;28;20060;-61